createdAt,value
2018-10-16T00:00:12.484Z,11.60
2018-10-16T00:02:41.041Z,10.53
2018-10-16T00:05:09.422Z,10.83
2018-10-16T00:07:37.929Z,11.33
2018-10-16T00:10:06.800Z,11.10
2018-10-16T00:12:35.138Z,11.10
2018-10-16T00:15:03.460Z,11.70
2018-10-16T00:17:31.789Z,11.90
2018-10-16T00:20:00.936Z,10.40
2018-10-16T00:22:29.251Z,11.17
2018-10-16T00:24:57.540Z,10.00
2018-10-16T00:27:25.861Z,9.27
2018-10-16T00:29:54.204Z,10.60
2018-10-16T00:32:22.589Z,9.87
2018-10-16T00:34:50.949Z,10.30
2018-10-16T00:37:19.257Z,9.87
2018-10-16T00:39:48.119Z,11.00
2018-10-16T00:42:16.466Z,11.03
2018-10-16T00:44:44.773Z,10.20
2018-10-16T00:47:13.081Z,10.70
2018-10-16T00:49:41.392Z,10.57
2018-10-16T00:52:09.708Z,9.87
2018-10-16T00:54:38.008Z,10.80
2018-10-16T00:57:06.311Z,11.57
2018-10-16T00:59:34.637Z,11.40
2018-10-16T01:02:02.923Z,11.50
2018-10-16T01:04:31.259Z,10.70
2018-10-16T01:06:59.576Z,11.47
2018-10-16T01:09:27.903Z,9.70
2018-10-16T01:11:56.212Z,10.43
2018-10-16T01:14:24.540Z,11.13
2018-10-16T01:16:52.886Z,11.10
2018-10-16T01:19:21.186Z,13.07
2018-10-16T01:21:49.537Z,10.90
2018-10-16T01:24:17.876Z,11.87
2018-10-16T01:26:46.201Z,11.40
2018-10-16T01:29:14.545Z,11.17
2018-10-16T01:31:42.909Z,11.03
2018-10-16T01:34:11.229Z,10.10
2018-10-16T01:36:39.555Z,11.63
2018-10-16T01:39:07.943Z,11.33
2018-10-16T01:41:36.261Z,11.07
2018-10-16T01:44:04.600Z,11.23
2018-10-16T01:46:32.932Z,12.00
2018-10-16T01:49:01.234Z,12.30
2018-10-16T01:51:29.553Z,10.97
2018-10-16T01:53:57.876Z,12.27
2018-10-16T01:56:26.216Z,11.60
2018-10-16T01:58:54.533Z,12.60
2018-10-16T02:01:22.837Z,13.10
2018-10-16T02:03:51.170Z,11.60
2018-10-16T02:06:19.485Z,11.23
2018-10-16T02:08:47.865Z,13.70
2018-10-16T02:11:16.213Z,11.90
2018-10-16T02:13:44.518Z,14.40
2018-10-16T02:16:12.821Z,13.80
2018-10-16T02:18:41.119Z,13.03
2018-10-16T02:21:09.857Z,13.97
2018-10-16T02:23:38.365Z,14.28
2018-10-16T02:26:06.816Z,13.33
2018-10-16T02:28:35.169Z,15.30
2018-10-16T02:31:03.610Z,14.30
2018-10-16T02:33:31.912Z,13.63
2018-10-16T02:36:00.217Z,14.37
2018-10-16T02:38:28.657Z,13.70
2018-10-16T02:40:57.029Z,14.30
2018-10-16T02:43:25.367Z,14.23
2018-10-16T02:45:53.686Z,14.27
2018-10-16T02:48:22.002Z,13.00
2018-10-16T02:50:50.303Z,14.60
2018-10-16T02:53:18.600Z,13.70
2018-10-16T02:55:46.950Z,14.10
2018-10-16T02:58:15.293Z,14.80
2018-10-16T03:00:43.646Z,15.47
2018-10-16T03:03:11.983Z,15.30
2018-10-16T03:05:40.385Z,14.87
2018-10-16T03:08:08.817Z,14.40
2018-10-16T03:10:37.149Z,15.30
2018-10-16T03:13:05.535Z,13.63
2018-10-16T03:15:33.868Z,14.43
2018-10-16T03:18:02.198Z,14.50
2018-10-16T03:20:30.581Z,14.20
2018-10-16T03:22:58.881Z,13.13
2018-10-16T03:25:27.798Z,14.07
2018-10-16T03:27:56.161Z,13.97
2018-10-16T03:30:24.505Z,16.87
2018-10-16T03:32:52.845Z,15.80
2018-10-16T03:35:21.138Z,13.50
2018-10-16T03:37:49.476Z,16.50
2018-10-16T03:40:17.820Z,15.80
2018-10-16T03:42:46.140Z,14.97
2018-10-16T03:45:14.440Z,14.20
2018-10-16T03:47:43.711Z,13.80
2018-10-16T03:50:11.992Z,16.23
2018-10-16T03:52:40.331Z,14.63
2018-10-16T03:55:08.785Z,14.60
2018-10-16T03:57:37.132Z,13.03
2018-10-16T04:00:06.573Z,15.13
2018-10-16T04:02:34.877Z,15.50
2018-10-16T04:05:03.243Z,16.23
2018-10-16T04:07:31.565Z,14.87
2018-10-16T04:10:00.479Z,14.20
2018-10-16T04:12:28.797Z,14.67
2018-10-16T04:14:57.109Z,15.37
2018-10-16T04:17:25.453Z,15.20
2018-10-16T04:19:53.969Z,15.93
2018-10-16T04:22:22.383Z,14.73
2018-10-16T04:24:50.684Z,14.77
2018-10-16T04:27:18.997Z,15.50
2018-10-16T04:29:47.440Z,14.70
2018-10-16T04:32:15.766Z,14.70
2018-10-16T04:34:44.126Z,16.40
2018-10-16T04:37:12.431Z,15.20
2018-10-16T04:39:40.772Z,14.87
2018-10-16T04:42:09.097Z,15.33
2018-10-16T04:44:37.437Z,17.00
2018-10-16T04:47:05.895Z,14.93
2018-10-16T04:49:34.229Z,14.70
2018-10-16T04:52:02.550Z,15.70
2018-10-16T04:54:31.506Z,15.40
2018-10-16T04:56:59.842Z,15.70
2018-10-16T04:59:28.218Z,13.93
2018-10-16T05:01:56.530Z,15.33
2018-10-16T05:04:24.830Z,15.80
2018-10-16T05:06:53.144Z,14.20
2018-10-16T05:09:21.697Z,14.77
2018-10-16T05:11:52.624Z,14.07
2018-10-16T05:14:20.927Z,15.60
2018-10-16T05:16:49.249Z,15.40
2018-10-16T05:19:17.677Z,15.07
2018-10-16T05:21:45.878Z,15.93
2018-10-16T05:24:14.188Z,15.97
2018-10-16T05:26:42.504Z,15.57
2018-10-16T05:29:11.367Z,14.70
2018-10-16T05:31:39.806Z,13.43
2018-10-16T05:34:09.048Z,14.80
2018-10-16T05:36:37.825Z,15.67
2018-10-16T05:39:08.787Z,14.03
2018-10-16T05:41:37.094Z,17.00
2018-10-16T05:44:05.727Z,15.40
2018-10-16T05:46:34.022Z,14.63
2018-10-16T05:49:02.347Z,15.47
2018-10-16T05:51:30.665Z,15.33
2018-10-16T05:53:58.993Z,13.63
2018-10-16T05:56:27.321Z,14.47
2018-10-16T05:58:55.633Z,16.30
2018-10-16T06:01:24.004Z,15.93
2018-10-16T06:03:52.377Z,15.43
2018-10-16T06:06:20.829Z,14.90
2018-10-16T06:08:49.120Z,15.60
2018-10-16T06:11:18.134Z,16.63
2018-10-16T06:13:46.460Z,16.27
2018-10-16T06:16:14.764Z,15.77
2018-10-16T06:18:43.713Z,16.30
2018-10-16T06:21:12.931Z,17.30
2018-10-16T06:23:41.276Z,15.50
2018-10-16T06:26:09.974Z,16.00
2018-10-16T06:28:39.120Z,16.53
2018-10-16T06:31:07.434Z,14.30
2018-10-16T06:33:35.856Z,15.60
2018-10-16T06:36:04.368Z,15.30
2018-10-16T06:38:32.677Z,17.20
2018-10-16T06:41:01.353Z,15.00
2018-10-16T06:43:29.401Z,13.90
2018-10-16T06:45:57.721Z,16.20
2018-10-16T06:48:26.325Z,14.87
2018-10-16T06:50:54.370Z,15.97
2018-10-16T06:53:23.395Z,13.67
2018-10-16T06:55:51.629Z,15.57
2018-10-16T06:58:19.937Z,15.60
2018-10-16T07:00:48.287Z,15.63
2018-10-16T07:03:16.571Z,14.60
2018-10-16T07:05:44.904Z,14.87
2018-10-16T07:08:14.040Z,14.07
2018-10-16T07:10:42.337Z,16.40
2018-10-16T07:13:10.648Z,14.80
2018-10-16T07:15:38.969Z,17.43
2018-10-16T07:18:07.282Z,14.83
2018-10-16T07:20:35.606Z,15.27
2018-10-16T07:23:03.949Z,16.47
2018-10-16T07:25:32.236Z,16.57
2018-10-16T07:28:00.584Z,15.93
2018-10-16T07:30:28.893Z,16.87
2018-10-16T07:32:57.249Z,15.50
2018-10-16T07:35:26.162Z,15.90
2018-10-16T07:37:54.592Z,15.77
2018-10-16T07:40:22.920Z,15.70
2018-10-16T07:42:51.299Z,17.17
2018-10-16T07:45:19.601Z,16.00
2018-10-16T07:47:47.934Z,16.07
2018-10-16T07:50:16.264Z,18.63
2018-10-16T07:52:44.573Z,17.27
2018-10-16T07:55:13.894Z,17.30
2018-10-16T07:57:42.210Z,16.60
2018-10-16T08:00:11.648Z,16.47
2018-10-16T08:02:40.358Z,17.47
2018-10-16T08:05:09.916Z,17.10
2018-10-16T08:07:38.477Z,16.70
2018-10-16T08:10:08.315Z,18.37
2018-10-16T08:12:36.871Z,16.83
2018-10-16T08:15:07.038Z,18.10
2018-10-16T08:17:35.434Z,18.27
2018-10-16T08:20:03.791Z,17.17
2018-10-16T08:22:32.093Z,18.83
2018-10-16T08:25:00.405Z,17.70
2018-10-16T08:27:28.708Z,17.43
2018-10-16T08:29:57.358Z,18.00
2018-10-16T08:32:25.652Z,17.30
2018-10-16T08:34:54.035Z,18.47
2018-10-16T08:37:32.905Z,19.83
2018-10-16T08:40:01.800Z,20.03
2018-10-16T08:43:42.110Z,21.43
2018-10-16T08:46:21.617Z,32.27
2018-10-16T08:49:01.766Z,31.40
2018-10-16T08:51:35.339Z,22.83
2018-10-16T08:54:03.774Z,18.47
2018-10-16T08:56:32.519Z,18.90
2018-10-16T08:59:01.173Z,18.20
2018-10-16T09:01:29.869Z,8.37
2018-10-16T09:03:58.445Z,8.10
2018-10-16T09:06:26.765Z,13.63
2018-10-16T09:08:55.075Z,13.57
2018-10-16T09:11:23.392Z,12.37
2018-10-16T09:13:51.851Z,13.23
2018-10-16T09:16:20.758Z,12.23
2018-10-16T09:18:49.078Z,13.30
2018-10-16T09:21:17.441Z,12.07
2018-10-16T09:23:45.969Z,13.13
2018-10-16T09:26:14.348Z,12.40
2018-10-16T09:28:42.686Z,12.00
2018-10-16T09:31:11.079Z,11.67
2018-10-16T09:33:39.929Z,10.33
2018-10-16T09:36:08.340Z,9.77
2018-10-16T09:38:37.376Z,11.20
2018-10-16T09:41:05.862Z,11.70
2018-10-16T09:43:34.164Z,9.63
2018-10-16T09:46:02.558Z,2.97
2018-10-16T09:48:30.865Z,3.83
2018-10-16T09:50:59.192Z,7.50
2018-10-16T09:53:27.507Z,7.30
2018-10-16T09:55:55.801Z,6.50
2018-10-16T09:58:24.278Z,9.80
2018-10-16T10:00:57.765Z,12.77
2018-10-16T10:03:26.181Z,14.17
2018-10-16T10:05:54.504Z,13.80
2018-10-16T10:08:22.876Z,13.70
2018-10-16T10:10:51.200Z,11.80
2018-10-16T10:13:19.543Z,12.43
2018-10-16T10:15:47.838Z,11.80
2018-10-16T10:18:16.233Z,10.97
2018-10-16T10:20:44.549Z,12.30
2018-10-16T10:23:12.871Z,12.27
2018-10-16T10:25:41.205Z,11.90
2018-10-16T10:28:09.511Z,11.73
2018-10-16T10:30:37.828Z,12.03
2018-10-16T10:33:06.151Z,13.27
2018-10-16T10:35:34.607Z,12.07
2018-10-16T10:38:02.829Z,12.90
2018-10-16T10:40:31.154Z,13.83
2018-10-16T10:42:59.458Z,12.47
2018-10-16T10:45:27.776Z,12.10
2018-10-16T10:47:56.106Z,11.73
2018-10-16T10:50:25.511Z,11.17
2018-10-16T10:52:53.533Z,10.30
2018-10-16T10:55:21.833Z,11.07
2018-10-16T10:57:50.125Z,10.87
2018-10-16T11:00:18.417Z,9.03
2018-10-16T11:02:47.984Z,9.27
2018-10-16T11:05:16.318Z,9.20
2018-10-16T11:07:44.674Z,7.73
2018-10-16T11:10:13.865Z,7.00
2018-10-16T11:12:43.263Z,6.77
2018-10-16T11:15:11.590Z,7.43
2018-10-16T11:17:40.217Z,7.20
2018-10-16T11:20:10.214Z,7.60
2018-10-16T11:22:38.632Z,6.07
2018-10-16T11:25:07.750Z,6.90
2018-10-16T11:27:36.177Z,6.77
2018-10-16T11:30:06.703Z,5.77
2018-10-16T11:32:34.917Z,6.37
2018-10-16T11:35:03.294Z,5.30
2018-10-16T11:37:31.592Z,6.23
2018-10-16T11:40:00.468Z,5.93
2018-10-16T11:42:28.789Z,5.73
2018-10-16T11:44:57.125Z,5.77
2018-10-16T11:47:25.406Z,5.73
2018-10-16T11:49:53.738Z,5.77
2018-10-16T11:52:22.142Z,6.40
2018-10-16T11:54:50.377Z,5.80
2018-10-16T11:57:18.930Z,7.03
2018-10-16T11:59:47.223Z,6.43
2018-10-16T12:02:15.612Z,6.33
2018-10-16T12:04:43.869Z,6.37
2018-10-16T12:07:12.313Z,5.70
2018-10-16T12:09:40.546Z,5.93
2018-10-16T12:12:08.926Z,5.17
2018-10-16T12:14:37.232Z,5.80
2018-10-16T12:17:43.422Z,5.63
2018-10-16T12:22:21.034Z,5.13
2018-10-16T12:24:49.383Z,5.70
2018-10-16T12:27:17.678Z,5.30
2018-10-16T12:29:46.013Z,4.87
2018-10-16T12:32:15.101Z,4.70
2018-10-16T12:34:43.420Z,5.03
2018-10-16T12:37:11.740Z,4.90
2018-10-16T12:39:40.098Z,4.73
2018-10-16T12:42:08.471Z,4.80
2018-10-16T12:44:36.733Z,5.07
2018-10-16T12:47:05.380Z,4.60
2018-10-16T12:49:33.580Z,5.03
2018-10-16T12:52:02.856Z,4.80
2018-10-16T12:54:31.137Z,4.57
2018-10-16T12:57:00.275Z,4.27
2018-10-16T12:59:28.529Z,4.53
2018-10-16T13:01:56.907Z,4.60
2018-10-16T13:04:25.159Z,4.73
2018-10-16T13:06:53.500Z,5.00
2018-10-16T13:09:21.804Z,4.43
2018-10-16T13:11:50.140Z,4.50
2018-10-16T13:14:18.479Z,4.30
2018-10-16T13:16:46.818Z,4.10
2018-10-16T13:19:15.093Z,4.30
2018-10-16T13:21:43.389Z,3.90
2018-10-16T13:24:11.710Z,4.20
2018-10-16T13:26:40.009Z,3.30
2018-10-16T13:29:08.419Z,3.80
2018-10-16T13:31:36.630Z,4.10
2018-10-16T13:34:05.762Z,4.40
2018-10-16T13:36:34.077Z,3.97
2018-10-16T13:39:02.381Z,4.30
2018-10-16T13:41:30.657Z,4.63
2018-10-16T13:43:59.000Z,4.70
2018-10-16T13:46:27.305Z,4.67
2018-10-16T13:48:55.592Z,5.77
2018-10-16T13:51:23.896Z,3.80
2018-10-16T13:53:52.201Z,4.37
2018-10-16T13:56:20.496Z,5.43
2018-10-16T13:58:48.806Z,5.10
2018-10-16T14:01:17.093Z,4.73
2018-10-16T14:03:45.694Z,5.30
2018-10-16T14:06:14.016Z,5.90
2018-10-16T14:08:42.309Z,5.40
2018-10-16T14:11:10.604Z,5.73
2018-10-16T14:13:38.921Z,5.80
2018-10-16T14:16:07.666Z,5.20
2018-10-16T14:18:36.941Z,5.57
2018-10-16T14:21:05.426Z,5.70
2018-10-16T14:23:33.714Z,5.40
2018-10-16T14:26:02.092Z,6.13
2018-10-16T14:28:30.359Z,6.27
2018-10-16T14:30:58.670Z,5.33
2018-10-16T14:33:27.005Z,6.03
2018-10-16T14:35:55.308Z,5.60
2018-10-16T14:38:23.603Z,5.53
2018-10-16T14:40:51.949Z,5.20
2018-10-16T14:43:20.260Z,5.90
2018-10-16T14:45:48.556Z,6.00
2018-10-16T14:48:16.925Z,6.10
2018-10-16T14:50:45.786Z,5.83
2018-10-16T14:53:14.093Z,5.83
2018-10-16T14:55:42.397Z,5.50
2018-10-16T14:58:10.767Z,6.90
2018-10-16T15:00:39.046Z,6.10
2018-10-16T15:03:07.353Z,5.50
2018-10-16T15:05:35.866Z,6.30
2018-10-16T15:08:04.445Z,5.93
2018-10-16T15:10:32.806Z,5.73
2018-10-16T15:13:01.788Z,6.37
2018-10-16T15:15:30.093Z,5.70
2018-10-16T15:17:58.400Z,5.87
2018-10-16T15:20:26.704Z,6.40
2018-10-16T15:22:54.984Z,7.73
2018-10-16T15:25:23.283Z,6.90
2018-10-16T15:27:52.170Z,5.90
2018-10-16T15:30:20.475Z,5.80
2018-10-16T15:32:48.785Z,6.30
2018-10-16T15:35:17.188Z,6.30
2018-10-16T15:37:45.491Z,6.70
2018-10-16T15:40:13.897Z,6.00
2018-10-16T15:42:42.491Z,6.93
2018-10-16T15:45:11.976Z,6.83
2018-10-16T15:47:40.961Z,6.60
2018-10-16T15:50:09.947Z,7.50
2018-10-16T15:52:38.408Z,7.30
2018-10-16T15:55:08.012Z,7.43
2018-10-16T15:57:37.078Z,6.50
2018-10-16T16:00:09.366Z,6.60
2018-10-16T16:02:37.692Z,7.23
2018-10-16T16:05:06.725Z,7.90
2018-10-16T16:07:35.045Z,6.90
2018-10-16T16:10:03.479Z,7.17
2018-10-16T16:12:31.804Z,8.20
2018-10-16T16:15:00.849Z,7.07
2018-10-16T16:17:29.181Z,6.40
2018-10-16T16:19:57.511Z,8.10
2018-10-16T16:22:26.477Z,7.50
2018-10-16T16:24:54.797Z,6.90
2018-10-16T16:27:23.088Z,7.13
2018-10-16T16:29:52.585Z,7.43
2018-10-16T16:32:21.018Z,9.87
2018-10-16T16:34:49.257Z,8.43
2018-10-16T16:37:17.558Z,7.70
2018-10-16T16:39:45.878Z,9.10
2018-10-16T16:42:14.156Z,8.17
2018-10-16T16:44:42.506Z,8.67
2018-10-16T16:47:10.887Z,8.03
2018-10-16T16:49:39.118Z,9.17
2018-10-16T16:52:07.507Z,8.17
2018-10-16T16:54:35.737Z,8.63
2018-10-16T16:57:04.193Z,10.07
2018-10-16T16:59:32.513Z,9.30
2018-10-16T17:02:00.852Z,10.43
2018-10-16T17:04:29.200Z,13.10
2018-10-16T17:06:57.468Z,21.63
2018-10-16T17:09:25.785Z,46.07
2018-10-16T17:11:54.175Z,19.83
2018-10-16T17:14:22.455Z,15.30
2018-10-16T17:16:50.745Z,11.13
2018-10-16T17:19:19.149Z,10.00
2018-10-16T17:21:47.445Z,10.17
2018-10-16T17:24:15.743Z,10.40
2018-10-16T17:26:44.220Z,10.33
2018-10-16T17:29:12.485Z,10.63
2018-10-16T17:31:40.792Z,9.43
2018-10-16T17:34:09.169Z,9.87
2018-10-16T17:36:37.466Z,10.10
2018-10-16T17:39:07.101Z,11.57
2018-10-16T17:41:35.397Z,10.67
2018-10-16T17:44:03.761Z,9.80
2018-10-16T17:46:32.112Z,11.30
2018-10-16T17:49:00.951Z,11.77
2018-10-16T17:51:29.259Z,10.67
2018-10-16T17:53:57.576Z,12.10
2018-10-16T17:56:25.925Z,10.40
2018-10-16T17:58:54.262Z,10.60
2018-10-16T18:01:22.598Z,12.43
2018-10-16T18:03:50.958Z,9.83
2018-10-16T18:06:19.270Z,11.60
2018-10-16T18:08:47.579Z,13.70
2018-10-16T18:11:15.910Z,12.87
2018-10-16T18:13:44.230Z,13.73
2018-10-16T18:16:12.562Z,12.37
2018-10-16T18:18:40.889Z,11.80
2018-10-16T18:21:09.234Z,12.33
2018-10-16T18:23:37.531Z,69.43
2018-10-16T18:26:05.938Z,108.43
2018-10-16T18:28:34.216Z,20.47
2018-10-16T18:31:02.545Z,13.17
2018-10-16T18:33:30.880Z,13.10
2018-10-16T18:35:59.193Z,13.27
2018-10-16T18:38:27.534Z,13.80
2018-10-16T18:40:55.845Z,12.83
2018-10-16T18:43:24.784Z,13.10
2018-10-16T18:45:53.268Z,13.60
2018-10-16T18:48:21.581Z,13.50
2018-10-16T18:50:49.919Z,13.87
2018-10-16T18:53:18.979Z,14.30
2018-10-16T18:55:47.423Z,15.17
2018-10-16T18:58:15.750Z,15.20
2018-10-16T19:00:44.076Z,14.60
2018-10-16T19:03:12.418Z,12.70
2018-10-16T19:05:40.749Z,13.83
2018-10-16T19:08:09.077Z,14.77
2018-10-16T19:10:37.413Z,13.03
2018-10-16T19:13:05.939Z,13.87
2018-10-16T19:15:34.252Z,14.37
2018-10-16T19:18:02.610Z,13.87
2018-10-16T19:20:30.924Z,13.83
2018-10-16T19:22:59.259Z,13.53
2018-10-16T19:25:27.621Z,14.13
2018-10-16T19:27:56.015Z,13.80
2018-10-16T19:30:24.325Z,14.70
2018-10-16T19:32:52.669Z,14.50
2018-10-16T19:35:20.977Z,14.27
2018-10-16T19:37:49.335Z,14.47
2018-10-16T19:40:17.621Z,13.10
2018-10-16T19:42:45.908Z,15.50
2018-10-16T19:45:14.342Z,13.50
2018-10-16T19:47:42.699Z,12.80
2018-10-16T19:50:11.565Z,12.83
2018-10-16T19:52:40.045Z,12.97
2018-10-16T19:55:08.509Z,14.93
2018-10-16T19:57:36.905Z,14.27
2018-10-16T20:00:06.516Z,13.93
2018-10-16T20:02:34.824Z,13.97
2018-10-16T20:05:03.158Z,13.63
2018-10-16T20:07:31.465Z,13.73
2018-10-16T20:10:00.483Z,14.60
2018-10-16T20:12:28.802Z,14.13
2018-10-16T20:14:57.111Z,14.80
2018-10-16T20:17:25.476Z,14.50
2018-10-16T20:19:53.803Z,14.07
2018-10-16T20:22:22.141Z,14.13
2018-10-16T20:24:51.425Z,13.27
2018-10-16T20:27:19.669Z,13.47
2018-10-16T20:29:47.970Z,13.50
2018-10-16T20:32:16.343Z,15.60
2018-10-16T20:34:44.648Z,15.13
2018-10-16T20:37:13.040Z,14.47
2018-10-16T20:39:41.306Z,13.20
2018-10-16T20:42:09.690Z,15.87
2018-10-16T20:44:38.685Z,14.00
2018-10-16T20:47:09.569Z,13.23
2018-10-16T20:49:37.850Z,15.07
2018-10-16T20:52:06.326Z,14.17
2018-10-16T20:54:34.637Z,13.93
2018-10-16T20:57:03.029Z,13.63
2018-10-16T20:59:31.409Z,12.57
2018-10-16T21:01:59.933Z,12.60
2018-10-16T21:04:29.872Z,14.13
2018-10-16T21:06:59.174Z,14.03
2018-10-16T21:09:29.576Z,14.10
2018-10-16T21:11:57.928Z,15.30
2018-10-16T21:14:26.272Z,13.13
2018-10-16T21:16:56.562Z,16.10
2018-10-16T21:19:24.978Z,14.60
2018-10-16T21:21:53.232Z,13.77
2018-10-16T21:24:21.644Z,14.20
2018-10-16T21:27:01.497Z,14.10
2018-10-16T21:29:29.803Z,14.30
2018-10-16T21:31:58.201Z,13.47
2018-10-16T21:34:26.671Z,14.10
2018-10-16T21:36:54.975Z,15.23
2018-10-16T21:39:24.097Z,13.87
2018-10-16T21:41:52.424Z,13.20
2018-10-16T21:44:21.360Z,12.53
2018-10-16T21:46:53.610Z,13.83
2018-10-16T21:49:22.911Z,13.53
2018-10-16T21:51:51.644Z,14.67
2018-10-16T21:54:19.984Z,13.97
2018-10-16T21:56:48.891Z,14.57
2018-10-16T21:59:17.538Z,13.53
2018-10-16T22:01:51.040Z,13.80
2018-10-16T22:04:19.397Z,12.23
2018-10-16T22:06:48.009Z,13.20
2018-10-16T22:09:16.318Z,13.67
2018-10-16T22:11:44.632Z,13.83
2018-10-16T22:14:12.976Z,15.63
2018-10-16T22:16:41.297Z,15.10
2018-10-16T22:19:09.685Z,14.30
2018-10-16T22:21:37.940Z,15.07
2018-10-16T22:24:06.283Z,14.57
2018-10-16T22:26:34.589Z,13.23
2018-10-16T22:29:02.956Z,14.00
2018-10-16T22:31:31.248Z,13.00
2018-10-16T22:33:59.560Z,14.93
2018-10-16T22:36:27.860Z,14.77
2018-10-16T22:39:12.313Z,14.90
2018-10-16T22:41:40.697Z,14.27
2018-10-16T22:44:09.581Z,15.40
2018-10-16T22:46:37.956Z,15.47
2018-10-16T22:49:06.524Z,15.13
2018-10-16T22:51:34.885Z,16.17
2018-10-16T22:54:03.192Z,16.80
2018-10-16T22:56:31.508Z,16.33
2018-10-16T22:58:59.825Z,13.40
2018-10-16T23:01:28.116Z,17.60
2018-10-16T23:03:56.484Z,14.33
2018-10-16T23:06:24.860Z,14.23
2018-10-16T23:08:53.204Z,14.40
2018-10-16T23:11:21.583Z,14.27
2018-10-16T23:13:49.856Z,14.40
2018-10-16T23:16:18.173Z,15.10
2018-10-16T23:18:46.520Z,16.67
2018-10-16T23:21:14.844Z,14.53
2018-10-16T23:23:43.139Z,15.47
2018-10-16T23:26:11.452Z,16.20
2018-10-16T23:28:39.748Z,14.63
2018-10-16T23:31:08.100Z,14.43
2018-10-16T23:33:36.380Z,14.37
2018-10-16T23:36:04.824Z,15.40
2018-10-16T23:38:33.140Z,15.03
2018-10-16T23:41:01.516Z,14.27
2018-10-16T23:43:29.784Z,15.50
2018-10-16T23:45:58.196Z,17.00
2018-10-16T23:48:26.480Z,15.50
2018-10-16T23:50:54.780Z,14.50
2018-10-16T23:53:23.088Z,14.37
2018-10-16T23:55:51.416Z,15.43
2018-10-16T23:58:20.532Z,14.87
